sensor_id;sensor_type;location;lat;lon;timestamp;pressure;altitude;pressure_sealevel;temperature;humidity
36386;BME280;24125;47.482;8.770;2023-02-03T00:02:21;97691.56;;;9.15;61.84
36386;BME280;24125;47.482;8.770;2023-02-03T00:04:54;97696.91;;;9.15;61.65
36386;BME280;24125;47.482;8.770;2023-02-03T00:07:27;97699.84;;;9.13;61.58
36386;BME280;24125;47.482;8.770;2023-02-03T00:10:02;97688.66;;;9.11;61.71
36386;BME280;24125;47.482;8.770;2023-02-03T00:12:35;97686.25;;;9.09;61.82
36386;BME280;24125;47.482;8.770;2023-02-03T00:15:08;97671.66;;;9.07;61.71
36386;BME280;24125;47.482;8.770;2023-02-03T00:17:41;97686.84;;;9.06;61.55
36386;BME280;24125;47.482;8.770;2023-02-03T00:20:14;97678.03;;;9.06;61.69
36386;BME280;24125;47.482;8.770;2023-02-03T00:22:47;97672.19;;;9.04;61.67
36386;BME280;24125;47.482;8.770;2023-02-03T00:25:21;97671.41;;;9.03;61.33
36386;BME280;24125;47.482;8.770;2023-02-03T00:27:54;97673.53;;;9.01;61.35
36386;BME280;24125;47.482;8.770;2023-02-03T00:30:27;97662.34;;;8.99;61.49
36386;BME280;24125;47.482;8.770;2023-02-03T00:33:00;97672.78;;;8.96;61.52
36386;BME280;24125;47.482;8.770;2023-02-03T00:35:36;97678.66;;;8.93;61.17
36386;BME280;24125;47.482;8.770;2023-02-03T00:38:09;97683.25;;;8.87;60.83
36386;BME280;24125;47.482;8.770;2023-02-03T00:40:51;97689.38;;;8.83;61.26
36386;BME280;24125;47.482;8.770;2023-02-03T00:43:24;97706.75;;;8.75;60.83
36386;BME280;24125;47.482;8.770;2023-02-03T00:45:57;97698.53;;;8.66;61.17
36386;BME280;24125;47.482;8.770;2023-02-03T00:48:30;97703.66;;;8.58;60.90
36386;BME280;24125;47.482;8.770;2023-02-03T00:51:03;97706.88;;;8.50;61.04
36386;BME280;24125;47.482;8.770;2023-02-03T00:53:35;97708.53;;;8.41;61.44
36386;BME280;24125;47.482;8.770;2023-02-03T00:56:10;97714.16;;;8.34;61.58
36386;BME280;24125;47.482;8.770;2023-02-03T00:58:44;97717.88;;;8.23;61.84
36386;BME280;24125;47.482;8.770;2023-02-03T01:01:17;97721.66;;;8.17;61.83
36386;BME280;24125;47.482;8.770;2023-02-03T01:03:50;97713.97;;;8.10;61.62
36386;BME280;24125;47.482;8.770;2023-02-03T01:06:23;97718.78;;;8.03;62.15
36386;BME280;24125;47.482;8.770;2023-02-03T01:08:56;97715.31;;;7.97;61.58
36386;BME280;24125;47.482;8.770;2023-02-03T01:11:31;97723.31;;;7.92;62.38
36386;BME280;24125;47.482;8.770;2023-02-03T01:14:04;97730.22;;;7.88;62.34
36386;BME280;24125;47.482;8.770;2023-02-03T01:16:37;97742.22;;;7.86;62.24
36386;BME280;24125;47.482;8.770;2023-02-03T01:19:11;97745.41;;;7.83;62.96
36386;BME280;24125;47.482;8.770;2023-02-03T01:21:45;97745.41;;;7.83;63.24
36386;BME280;24125;47.482;8.770;2023-02-03T01:24:18;97753.13;;;7.84;63.46
36386;BME280;24125;47.482;8.770;2023-02-03T01:26:52;97754.16;;;7.88;63.57
36386;BME280;24125;47.482;8.770;2023-02-03T01:29:25;97752.31;;;7.94;63.36
36386;BME280;24125;47.482;8.770;2023-02-03T01:31:58;97748.03;;;7.98;63.77
36386;BME280;24125;47.482;8.770;2023-02-03T01:34:31;97755.72;;;8.05;63.62
36386;BME280;24125;47.482;8.770;2023-02-03T01:37:04;97767.97;;;8.11;63.23
36386;BME280;24125;47.482;8.770;2023-02-03T01:39:36;97766.06;;;8.16;63.63
36386;BME280;24125;47.482;8.770;2023-02-03T01:42:12;97762.63;;;8.21;63.51
36386;BME280;24125;47.482;8.770;2023-02-03T01:44:47;97761.25;;;8.28;63.50
36386;BME280;24125;47.482;8.770;2023-02-03T01:47:25;97756.47;;;8.36;63.60
36386;BME280;24125;47.482;8.770;2023-02-03T01:50:07;97753.50;;;8.42;62.85
36386;BME280;24125;47.482;8.770;2023-02-03T01:52:43;97751.59;;;8.48;63.06
36386;BME280;24125;47.482;8.770;2023-02-03T01:55:20;97739.34;;;8.52;63.26
36386;BME280;24125;47.482;8.770;2023-02-03T01:57:59;97740.91;;;8.58;63.11
36386;BME280;24125;47.482;8.770;2023-02-03T02:00:35;97734.25;;;8.60;63.03
36386;BME280;24125;47.482;8.770;2023-02-03T02:03:09;97735.31;;;8.64;62.76
36386;BME280;24125;47.482;8.770;2023-02-03T02:05:45;97747.78;;;8.69;62.58
36386;BME280;24125;47.482;8.770;2023-02-03T02:08:20;97753.88;;;8.75;62.69
36386;BME280;24125;47.482;8.770;2023-02-03T02:10:54;97758.41;;;8.79;63.21
36386;BME280;24125;47.482;8.770;2023-02-03T02:13:30;97763.69;;;8.84;62.61
36386;BME280;24125;47.482;8.770;2023-02-03T02:16:08;97752.22;;;8.89;62.45
36386;BME280;24125;47.482;8.770;2023-02-03T02:18:57;97754.84;;;8.94;62.14
36386;BME280;24125;47.482;8.770;2023-02-03T02:21:42;97749.50;;;8.99;62.28
36386;BME280;24125;47.482;8.770;2023-02-03T02:24:41;97753.97;;;9.03;61.64
36386;BME280;24125;47.482;8.770;2023-02-03T02:27:36;97757.97;;;9.06;62.42
36386;BME280;24125;47.482;8.770;2023-02-03T02:30:29;97750.19;;;9.09;61.95
36386;BME280;24125;47.482;8.770;2023-02-03T02:33:19;97743.53;;;9.12;62.13
36386;BME280;24125;47.482;8.770;2023-02-03T02:36:07;97733.41;;;9.14;62.23
36386;BME280;24125;47.482;8.770;2023-02-03T02:38:49;97723.53;;;9.15;61.69
36386;BME280;24125;47.482;8.770;2023-02-03T02:41:28;97706.47;;;9.16;61.80
36386;BME280;24125;47.482;8.770;2023-02-03T02:44:06;97683.28;;;9.16;61.91
36386;BME280;24125;47.482;8.770;2023-02-03T02:46:45;97669.44;;;9.14;61.96
36386;BME280;24125;47.482;8.770;2023-02-03T02:49:24;97677.97;;;9.16;62.10
36386;BME280;24125;47.482;8.770;2023-02-03T02:52:03;97682.50;;;9.16;61.97
36386;BME280;24125;47.482;8.770;2023-02-03T02:54:40;97687.03;;;9.15;61.77
36386;BME280;24125;47.482;8.770;2023-02-03T02:57:14;97691.56;;;9.15;61.68
36386;BME280;24125;47.482;8.770;2023-02-03T02:59:50;97701.44;;;9.14;62.00
36386;BME280;24125;47.482;8.770;2023-02-03T03:02:30;97702.22;;;9.15;61.80
36386;BME280;24125;47.482;8.770;2023-02-03T03:05:07;97701.16;;;9.16;61.61
36386;BME280;24125;47.482;8.770;2023-02-03T03:07:44;97696.09;;;9.14;61.96
36386;BME280;24125;47.482;8.770;2023-02-03T03:10:22;97685.44;;;9.14;61.65
36386;BME280;24125;47.482;8.770;2023-02-03T03:13:01;97697.69;;;9.15;62.02
36386;BME280;24125;47.482;8.770;2023-02-03T03:15:36;97707.28;;;9.16;61.96
36386;BME280;24125;47.482;8.770;2023-02-03T03:18:12;97703.50;;;9.17;61.58
36386;BME280;24125;47.482;8.770;2023-02-03T03:20:50;97694.44;;;9.18;61.72
36386;BME280;24125;47.482;8.770;2023-02-03T03:23:29;97688.06;;;9.19;61.64
36386;BME280;24125;47.482;8.770;2023-02-03T03:26:11;97704.56;;;9.21;61.33
36386;BME280;24125;47.482;8.770;2023-02-03T03:28:47;97694.97;;;9.20;61.64
36386;BME280;24125;47.482;8.770;2023-02-03T03:31:21;97688.56;;;9.21;61.28
36386;BME280;24125;47.482;8.770;2023-02-03T03:33:54;97685.91;;;9.21;61.71
36386;BME280;24125;47.482;8.770;2023-02-03T03:36:31;97672.03;;;9.24;61.37
36386;BME280;24125;47.482;8.770;2023-02-03T03:39:12;97671.72;;;9.26;61.15
36386;BME280;24125;47.482;8.770;2023-02-03T03:41:55;97660.31;;;9.25;61.44
36386;BME280;24125;47.482;8.770;2023-02-03T03:44:34;97665.06;;;9.28;61.05
36386;BME280;24125;47.482;8.770;2023-02-03T03:47:15;97682.13;;;9.27;61.22
36386;BME280;24125;47.482;8.770;2023-02-03T03:49:50;97690.13;;;9.27;61.40
36386;BME280;24125;47.482;8.770;2023-02-03T03:52:29;97692.78;;;9.27;60.79
36386;BME280;24125;47.482;8.770;2023-02-03T03:55:07;97703.97;;;9.29;61.15
36386;BME280;24125;47.482;8.770;2023-02-03T03:57:45;97686.38;;;9.28;61.07
36386;BME280;24125;47.482;8.770;2023-02-03T04:00:26;97678.38;;;9.28;61.26
36386;BME280;24125;47.482;8.770;2023-02-03T04:03:10;97677.84;;;9.31;60.84
36386;BME280;24125;47.482;8.770;2023-02-03T04:05:45;97662.38;;;9.28;60.97
36386;BME280;24125;47.482;8.770;2023-02-03T04:08:19;97653.59;;;9.28;61.04
36386;BME280;24125;47.482;8.770;2023-02-03T04:10:52;97652.00;;;9.27;60.81
36386;BME280;24125;47.482;8.770;2023-02-03T04:13:25;97653.38;;;9.24;61.20
36386;BME280;24125;47.482;8.770;2023-02-03T04:15:58;97664.31;;;9.23;60.75
36386;BME280;24125;47.482;8.770;2023-02-03T04:18:31;97648.59;;;9.21;60.76
36386;BME280;24125;47.482;8.770;2023-02-03T04:21:04;97629.44;;;9.19;60.96
36386;BME280;24125;47.482;8.770;2023-02-03T04:23:38;97650.47;;;9.21;60.89
36386;BME280;24125;47.482;8.770;2023-02-03T04:26:11;97643.81;;;9.18;61.05
36386;BME280;24125;47.482;8.770;2023-02-03T04:28:44;97645.41;;;9.19;60.99
36386;BME280;24125;47.482;8.770;2023-02-03T04:31:16;97656.06;;;9.19;60.90
36386;BME280;24125;47.482;8.770;2023-02-03T04:33:49;97650.75;;;9.19;61.02
36386;BME280;24125;47.482;8.770;2023-02-03T04:36:23;97644.91;;;9.17;61.09
36386;BME280;24125;47.482;8.770;2023-02-03T04:38:57;97638.50;;;9.18;60.67
36386;BME280;24125;47.482;8.770;2023-02-03T04:41:30;97637.22;;;9.16;60.67
36386;BME280;24125;47.482;8.770;2023-02-03T04:44:03;97639.88;;;9.16;60.50
36386;BME280;24125;47.482;8.770;2023-02-03T04:46:36;97636.97;;;9.12;60.39
36386;BME280;24125;47.482;8.770;2023-02-03T04:49:09;97648.97;;;9.09;60.28
36386;BME280;24125;47.482;8.770;2023-02-03T04:51:42;97664.44;;;9.07;60.74
36386;BME280;24125;47.482;8.770;2023-02-03T04:54:17;97664.72;;;9.06;60.17
36386;BME280;24125;47.482;8.770;2023-02-03T04:56:50;97686.84;;;9.01;60.43
36386;BME280;24125;47.482;8.770;2023-02-03T04:59:23;97688.22;;;8.99;60.60
36386;BME280;24125;47.482;8.770;2023-02-03T05:01:56;97692.75;;;8.98;60.77
36386;BME280;24125;47.482;8.770;2023-02-03T05:04:29;97703.69;;;8.97;60.64
36386;BME280;24125;47.482;8.770;2023-02-03T05:07:02;97694.31;;;8.99;61.00
36386;BME280;24125;47.482;8.770;2023-02-03T05:09:36;97694.06;;;9.01;61.20
36386;BME280;24125;47.482;8.770;2023-02-03T05:12:09;97702.84;;;9.01;61.34
36386;BME280;24125;47.482;8.770;2023-02-03T05:14:42;97711.09;;;9.05;61.52
36386;BME280;24125;47.482;8.770;2023-02-03T05:17:15;97716.13;;;9.06;61.22
36386;BME280;24125;47.482;8.770;2023-02-03T05:19:48;97718.53;;;9.08;61.08
36386;BME280;24125;47.482;8.770;2023-02-03T05:22:21;97721.69;;;9.10;61.53
36386;BME280;24125;47.482;8.770;2023-02-03T05:24:55;97722.75;;;9.14;61.09
36386;BME280;24125;47.482;8.770;2023-02-03T05:27:28;97714.47;;;9.16;61.05
36386;BME280;24125;47.482;8.770;2023-02-03T05:30:01;97709.38;;;9.19;60.97
36386;BME280;24125;47.482;8.770;2023-02-03T05:32:34;97709.88;;;9.21;60.81
36386;BME280;24125;47.482;8.770;2023-02-03T05:35:07;97702.94;;;9.25;61.07
36386;BME280;24125;47.482;8.770;2023-02-03T05:37:42;97708.50;;;9.29;61.04
36386;BME280;24125;47.482;8.770;2023-02-03T05:40:17;97715.94;;;9.32;60.84
36386;BME280;24125;47.482;8.770;2023-02-03T05:43:08;97722.06;;;9.32;61.01
36386;BME280;24125;47.482;8.770;2023-02-03T05:45:41;97729.50;;;9.35;61.00
36386;BME280;24125;47.482;8.770;2023-02-03T05:48:13;97734.81;;;9.35;61.16
36386;BME280;24125;47.482;8.770;2023-02-03T05:50:46;97751.34;;;9.37;60.71
36386;BME280;24125;47.482;8.770;2023-02-03T05:53:19;97755.88;;;9.37;60.62
36386;BME280;24125;47.482;8.770;2023-02-03T05:55:54;97767.84;;;9.39;60.91
36386;BME280;24125;47.482;8.770;2023-02-03T05:58:27;97761.72;;;9.39;60.76
36386;BME280;24125;47.482;8.770;2023-02-03T06:00:59;97743.59;;;9.41;61.15
36386;BME280;24125;47.482;8.770;2023-02-03T06:03:32;97715.88;;;9.42;61.09
36386;BME280;24125;47.482;8.770;2023-02-03T06:06:05;97701.16;;;9.44;60.68
36386;BME280;24125;47.482;8.770;2023-02-03T06:08:38;97701.16;;;9.44;60.73
36386;BME280;24125;47.482;8.770;2023-02-03T06:11:12;97692.88;;;9.46;60.67
36386;BME280;24125;47.482;8.770;2023-02-03T06:13:46;97689.41;;;9.45;60.40
36386;BME280;24125;47.482;8.770;2023-02-03T06:16:19;97704.34;;;9.46;60.64
36386;BME280;24125;47.482;8.770;2023-02-03T06:18:53;97685.69;;;9.46;60.67
36386;BME280;24125;47.482;8.770;2023-02-03T06:21:26;97681.44;;;9.45;60.41
36386;BME280;24125;47.482;8.770;2023-02-03T06:23:59;97686.75;;;9.45;60.48
36386;BME280;24125;47.482;8.770;2023-02-03T06:26:34;97693.69;;;9.46;60.78
36386;BME280;24125;47.482;8.770;2023-02-03T06:29:07;97698.50;;;9.44;60.62
36386;BME280;24125;47.482;8.770;2023-02-03T06:31:39;97701.94;;;9.45;60.66
36386;BME280;24125;47.482;8.770;2023-02-03T06:34:12;97705.41;;;9.45;60.68
36386;BME280;24125;47.482;8.770;2023-02-03T06:36:45;97704.34;;;9.46;60.70
36386;BME280;24125;47.482;8.770;2023-02-03T06:39:18;97697.41;;;9.45;60.82
36386;BME280;24125;47.482;8.770;2023-02-03T06:41:53;97704.06;;;9.48;60.81
36386;BME280;24125;47.482;8.770;2023-02-03T06:44:26;97726.19;;;9.49;60.79
36386;BME280;24125;47.482;8.770;2023-02-03T06:46:59;97737.13;;;9.47;60.71
36386;BME280;24125;47.482;8.770;2023-02-03T06:49:33;97744.84;;;9.49;60.78
36386;BME280;24125;47.482;8.770;2023-02-03T06:52:06;97748.84;;;9.51;60.92
36386;BME280;24125;47.482;8.770;2023-02-03T06:54:39;97756.53;;;9.53;60.56
36386;BME280;24125;47.482;8.770;2023-02-03T06:57:13;97758.13;;;9.54;60.80
36386;BME280;24125;47.482;8.770;2023-02-03T06:59:46;97746.66;;;9.53;60.78
36386;BME280;24125;47.482;8.770;2023-02-03T07:02:19;97742.66;;;9.56;60.51
36386;BME280;24125;47.482;8.770;2023-02-03T07:04:52;97770.13;;;9.56;60.83
36386;BME280;24125;47.482;8.770;2023-02-03T07:07:25;97757.31;;;9.58;60.55
36386;BME280;24125;47.482;8.770;2023-02-03T07:09:58;97773.25;;;9.63;60.70
36386;BME280;24125;47.482;8.770;2023-02-03T07:12:32;97780.44;;;9.63;60.79
36386;BME280;24125;47.482;8.770;2023-02-03T07:15:08;97786.31;;;9.65;60.16
36386;BME280;24125;47.482;8.770;2023-02-03T07:17:41;97773.50;;;9.67;60.74
36386;BME280;24125;47.482;8.770;2023-02-03T07:20:13;97766.50;;;9.71;60.38
36386;BME280;24125;47.482;8.770;2023-02-03T07:22:53;97778.22;;;9.75;60.10
36386;BME280;24125;47.482;8.770;2023-02-03T07:25:31;97779.81;;;9.76;60.16
36386;BME280;24125;47.482;8.770;2023-02-03T07:28:05;97789.63;;;9.80;60.23
36386;BME280;24125;47.482;8.770;2023-02-03T07:30:38;97779.75;;;9.81;60.21
36386;BME280;24125;47.482;8.770;2023-02-03T07:33:11;97777.34;;;9.84;60.50
36386;BME280;24125;47.482;8.770;2023-02-03T07:35:50;97767.69;;;9.89;59.88
36386;BME280;24125;47.482;8.770;2023-02-03T07:38:24;97766.34;;;9.91;60.20
36386;BME280;24125;47.482;8.770;2023-02-03T07:40:57;97755.09;;;9.94;60.40
36386;BME280;24125;47.482;8.770;2023-02-03T07:43:32;97738.00;;;9.95;60.05
36386;BME280;24125;47.482;8.770;2023-02-03T07:46:04;97744.66;;;9.98;59.90
36386;BME280;24125;47.482;8.770;2023-02-03T07:48:37;97736.09;;;10.01;59.87
36386;BME280;24125;47.482;8.770;2023-02-03T07:51:10;97740.03;;;10.03;59.75
36386;BME280;24125;47.482;8.770;2023-02-03T07:53:43;97725.13;;;10.02;59.62
36386;BME280;24125;47.482;8.770;2023-02-03T07:56:16;97728.28;;;10.04;59.72
36386;BME280;24125;47.482;8.770;2023-02-03T07:58:52;97754.41;;;10.07;59.36
36386;BME280;24125;47.482;8.770;2023-02-03T08:01:25;97762.44;;;10.07;59.51
36386;BME280;24125;47.482;8.770;2023-02-03T08:03:58;97752.28;;;10.09;59.75
36386;BME280;24125;47.482;8.770;2023-02-03T08:06:32;97743.69;;;10.12;59.55
36386;BME280;24125;47.482;8.770;2023-02-03T08:09:05;97741.53;;;10.14;59.46
36386;BME280;24125;47.482;8.770;2023-02-03T08:11:38;97726.84;;;10.17;59.60
36386;BME280;24125;47.482;8.770;2023-02-03T08:14:12;97706.03;;;10.19;59.53
36386;BME280;24125;47.482;8.770;2023-02-03T08:16:45;97711.84;;;10.21;59.75
36386;BME280;24125;47.482;8.770;2023-02-03T08:19:18;97749.19;;;10.26;59.70
36386;BME280;24125;47.482;8.770;2023-02-03T08:21:51;97751.56;;;10.28;59.26
36386;BME280;24125;47.482;8.770;2023-02-03T08:24:24;97750.41;;;10.34;59.34
36386;BME280;24125;47.482;8.770;2023-02-03T08:26:57;97759.47;;;10.38;59.26
36386;BME280;24125;47.482;8.770;2023-02-03T08:29:32;97765.81;;;10.42;59.14
36386;BME280;24125;47.482;8.770;2023-02-03T08:32:08;97757.72;;;10.47;59.25
36386;BME280;24125;47.482;8.770;2023-02-03T08:34:41;97752.09;;;10.48;59.14
36386;BME280;24125;47.482;8.770;2023-02-03T08:37:15;97749.09;;;10.55;59.14
36386;BME280;24125;47.482;8.770;2023-02-03T08:39:49;97745.06;;;10.57;59.08
36386;BME280;24125;47.482;8.770;2023-02-03T08:42:22;97730.06;;;10.62;58.53
36386;BME280;24125;47.482;8.770;2023-02-03T08:44:57;97726.31;;;10.63;58.18
36386;BME280;24125;47.482;8.770;2023-02-03T08:47:30;97712.63;;;10.64;58.18
36386;BME280;24125;47.482;8.770;2023-02-03T08:50:04;97720.38;;;10.66;58.64
36386;BME280;24125;47.482;8.770;2023-02-03T08:52:37;97722.25;;;10.65;58.61
36386;BME280;24125;47.482;8.770;2023-02-03T08:55:10;97728.09;;;10.67;58.37
36386;BME280;24125;47.482;8.770;2023-02-03T08:57:43;97733.44;;;10.67;58.02
36386;BME280;24125;47.482;8.770;2023-02-03T09:00:19;97752.13;;;10.67;57.51
36386;BME280;24125;47.482;8.770;2023-02-03T09:02:52;97758.03;;;10.64;57.87
36386;BME280;24125;47.482;8.770;2023-02-03T09:05:25;97742.91;;;10.59;57.36
36386;BME280;24125;47.482;8.770;2023-02-03T09:07:58;97742.19;;;10.54;57.71
36386;BME280;24125;47.482;8.770;2023-02-03T09:10:31;97733.69;;;10.47;57.67
36386;BME280;24125;47.482;8.770;2023-02-03T09:13:04;97743.09;;;10.44;57.67
36386;BME280;24125;47.482;8.770;2023-02-03T09:15:38;97735.13;;;10.39;57.60
36386;BME280;24125;47.482;8.770;2023-02-03T09:18:11;97742.94;;;10.36;57.69
36386;BME280;24125;47.482;8.770;2023-02-03T09:20:44;97744.28;;;10.33;58.15
36386;BME280;24125;47.482;8.770;2023-02-03T09:23:17;97747.50;;;10.30;57.98
36386;BME280;24125;47.482;8.770;2023-02-03T09:25:50;97749.69;;;10.28;57.79
36386;BME280;24125;47.482;8.770;2023-02-03T09:28:23;97739.31;;;10.27;58.37
36386;BME280;24125;47.482;8.770;2023-02-03T09:31:00;97731.00;;;10.28;58.07
36386;BME280;24125;47.482;8.770;2023-02-03T09:33:33;97725.94;;;10.27;58.46
36386;BME280;24125;47.482;8.770;2023-02-03T09:36:07;97713.88;;;10.29;58.86
36386;BME280;24125;47.482;8.770;2023-02-03T09:38:40;97695.72;;;10.31;58.64
36386;BME280;24125;47.482;8.770;2023-02-03T09:41:21;97712.50;;;10.37;58.12
36386;BME280;24125;47.482;8.770;2023-02-03T09:44:02;97711.09;;;10.39;58.10
36386;BME280;24125;47.482;8.770;2023-02-03T09:46:40;97726.00;;;10.45;58.43
36386;BME280;24125;47.482;8.770;2023-02-03T09:49:17;97729.38;;;10.51;58.18
36386;BME280;24125;47.482;8.770;2023-02-03T09:51:57;97736.25;;;10.57;58.21
36386;BME280;24125;47.482;8.770;2023-02-03T09:54:38;97740.75;;;10.62;58.29
36386;BME280;24125;47.482;8.770;2023-02-03T09:57:18;97737.72;;;10.68;57.83
36386;BME280;24125;47.482;8.770;2023-02-03T09:59:56;97726.94;;;10.73;58.26
36386;BME280;24125;47.482;8.770;2023-02-03T10:02:44;97717.28;;;10.77;57.91
36386;BME280;24125;47.482;8.770;2023-02-03T10:05:28;97728.69;;;10.83;57.83
36386;BME280;24125;47.482;8.770;2023-02-03T10:08:11;97736.03;;;10.91;57.77
36386;BME280;24125;47.482;8.770;2023-02-03T10:10:52;97732.25;;;10.97;57.66
36386;BME280;24125;47.482;8.770;2023-02-03T10:13:49;97739.59;;;11.05;57.67
36386;BME280;24125;47.482;8.770;2023-02-03T10:16:44;97732.28;;;11.11;57.22
36386;BME280;24125;47.482;8.770;2023-02-03T10:19:24;97744.00;;;11.15;57.73
36386;BME280;24125;47.482;8.770;2023-02-03T10:21:59;97752.44;;;11.22;58.14
36386;BME280;24125;47.482;8.770;2023-02-03T10:24:38;97759.59;;;11.26;58.03
36386;BME280;24125;47.482;8.770;2023-02-03T10:27:16;97753.09;;;11.32;57.10
36386;BME280;24125;47.482;8.770;2023-02-03T10:29:54;97740.13;;;11.40;56.93
36386;BME280;24125;47.482;8.770;2023-02-03T10:32:29;97731.22;;;11.44;57.22
36386;BME280;24125;47.482;8.770;2023-02-03T10:35:09;97731.34;;;11.53;57.54
36386;BME280;24125;47.482;8.770;2023-02-03T10:37:44;97728.78;;;11.61;57.37
36386;BME280;24125;47.482;8.770;2023-02-03T10:40:20;97714.75;;;11.69;57.09
36386;BME280;24125;47.482;8.770;2023-02-03T10:42:55;97707.94;;;11.77;57.15
36386;BME280;24125;47.482;8.770;2023-02-03T10:45:45;97712.81;;;11.89;57.31
36386;BME280;24125;47.482;8.770;2023-02-03T10:48:18;97712.13;;;11.97;56.85
36386;BME280;24125;47.482;8.770;2023-02-03T10:50:53;97707.69;;;12.06;56.92
36386;BME280;24125;47.482;8.770;2023-02-03T10:53:32;97713.53;;;12.22;57.43
36386;BME280;24125;47.482;8.770;2023-02-03T10:56:08;97725.03;;;12.36;57.86
36386;BME280;24125;47.482;8.770;2023-02-03T10:58:48;97721.75;;;12.53;57.22
36386;BME280;24125;47.482;8.770;2023-02-03T11:01:24;97709.00;;;12.72;58.51
36386;BME280;24125;47.482;8.770;2023-02-03T11:03:59;97718.19;;;12.93;57.43
36386;BME280;24125;47.482;8.770;2023-02-03T11:06:35;97693.41;;;13.10;56.63
36386;BME280;24125;47.482;8.770;2023-02-03T11:09:21;97687.88;;;13.29;56.31
36386;BME280;24125;47.482;8.770;2023-02-03T11:12:05;97670.91;;;13.42;55.82
36386;BME280;24125;47.482;8.770;2023-02-03T11:14:42;97678.41;;;13.53;55.99
36386;BME280;24125;47.482;8.770;2023-02-03T11:17:17;97672.00;;;13.63;55.64
36386;BME280;24125;47.482;8.770;2023-02-03T11:19:52;97661.00;;;13.73;55.17
36386;BME280;24125;47.482;8.770;2023-02-03T11:22:29;97653.78;;;13.82;54.57
36386;BME280;24125;47.482;8.770;2023-02-03T11:25:14;97665.47;;;13.86;54.65
36386;BME280;24125;47.482;8.770;2023-02-03T11:27:48;97685.69;;;13.92;53.81
36386;BME280;24125;47.482;8.770;2023-02-03T11:30:24;97678.91;;;13.95;53.48
36386;BME280;24125;47.482;8.770;2023-02-03T11:32:59;97678.13;;;13.94;53.26
36386;BME280;24125;47.482;8.770;2023-02-03T11:35:33;97665.00;;;13.93;53.33
36386;BME280;24125;47.482;8.770;2023-02-03T11:38:28;97684.13;;;13.91;53.32
36386;BME280;24125;47.482;8.770;2023-02-03T11:41:02;97674.31;;;13.87;53.46
36386;BME280;24125;47.482;8.770;2023-02-03T11:43:35;97666.09;;;13.83;53.56
36386;BME280;24125;47.482;8.770;2023-02-03T11:46:08;97684.41;;;13.81;53.27
36386;BME280;24125;47.482;8.770;2023-02-03T11:48:54;97682.31;;;13.78;52.81
36386;BME280;24125;47.482;8.770;2023-02-03T11:51:33;97681.38;;;13.74;53.07
36386;BME280;24125;47.482;8.770;2023-02-03T11:54:23;97689.88;;;13.76;53.89
36386;BME280;24125;47.482;8.770;2023-02-03T11:57:09;97679.03;;;13.81;54.03
36386;BME280;24125;47.482;8.770;2023-02-03T12:00:03;97676.69;;;13.88;54.07
36386;BME280;24125;47.482;8.770;2023-02-03T12:03:14;97669.16;;;13.99;53.88
36386;BME280;24125;47.482;8.770;2023-02-03T12:06:05;97653.72;;;14.13;54.12
36386;BME280;24125;47.482;8.770;2023-02-03T12:08:54;97648.84;;;14.24;53.28
36386;BME280;24125;47.482;8.770;2023-02-03T12:11:43;97663.09;;;14.33;52.87
36386;BME280;24125;47.482;8.770;2023-02-03T12:14:33;97670.19;;;14.38;52.69
36386;BME280;24125;47.482;8.770;2023-02-03T12:17:25;97682.44;;;14.44;53.29
36386;BME280;24125;47.482;8.770;2023-02-03T12:20:16;97689.34;;;14.45;52.39
36386;BME280;24125;47.482;8.770;2023-02-03T12:22:58;97681.31;;;14.45;52.45
36386;BME280;24125;47.482;8.770;2023-02-03T12:25:43;97677.50;;;14.46;52.30
36386;BME280;24125;47.482;8.770;2023-02-03T12:31:22;97649.22;;;14.40;52.12
36386;BME280;24125;47.482;8.770;2023-02-03T12:34:05;97633.38;;;14.38;52.01
36386;BME280;24125;47.482;8.770;2023-02-03T12:36:44;97635.00;;;14.39;52.36
36386;BME280;24125;47.482;8.770;2023-02-03T12:39:24;97619.47;;;14.36;52.62
36386;BME280;24125;47.482;8.770;2023-02-03T12:42:01;97606.81;;;14.36;52.48
36386;BME280;24125;47.482;8.770;2023-02-03T12:44:44;97587.56;;;14.34;51.77
36386;BME280;24125;47.482;8.770;2023-02-03T12:47:25;97590.56;;;14.33;52.21
36386;BME280;24125;47.482;8.770;2023-02-03T12:50:05;97603.50;;;14.31;52.25
36386;BME280;24125;47.482;8.770;2023-02-03T12:52:44;97598.44;;;14.29;52.41
36386;BME280;24125;47.482;8.770;2023-02-03T12:55:24;97599.53;;;14.28;52.54
36386;BME280;24125;47.482;8.770;2023-02-03T12:58:01;97603.31;;;14.27;53.07
36386;BME280;24125;47.482;8.770;2023-02-03T13:00:42;97588.66;;;14.25;52.65
36386;BME280;24125;47.482;8.770;2023-02-03T13:03:22;97583.59;;;14.23;52.33
36386;BME280;24125;47.482;8.770;2023-02-03T13:06:03;97574.44;;;14.24;52.89
36386;BME280;24125;47.482;8.770;2023-02-03T13:08:42;97584.69;;;14.22;52.89
36386;BME280;24125;47.482;8.770;2023-02-03T13:11:22;97599.53;;;14.20;52.43
36386;BME280;24125;47.482;8.770;2023-02-03T13:14:00;97599.38;;;14.16;52.05
36386;BME280;24125;47.482;8.770;2023-02-03T13:16:40;97593.03;;;14.12;51.99
36386;BME280;24125;47.482;8.770;2023-02-03T13:19:20;97577.88;;;14.08;52.15
36386;BME280;24125;47.482;8.770;2023-02-03T13:21:54;97577.56;;;14.01;52.60
36386;BME280;24125;47.482;8.770;2023-02-03T13:24:28;97572.81;;;13.97;53.04
36386;BME280;24125;47.482;8.770;2023-02-03T13:27:13;97569.16;;;13.93;52.02
36386;BME280;24125;47.482;8.770;2023-02-03T13:30:04;97550.22;;;13.90;51.98
36386;BME280;24125;47.482;8.770;2023-02-03T13:32:48;97535.81;;;13.86;54.85
36386;BME280;24125;47.482;8.770;2023-02-03T13:35:40;97537.41;;;13.87;52.75
36386;BME280;24125;47.482;8.770;2023-02-03T13:38:43;97546.41;;;13.82;52.58
36386;BME280;24125;47.482;8.770;2023-02-03T13:41:28;97557.44;;;13.81;52.96
36386;BME280;24125;47.482;8.770;2023-02-03T13:44:04;97560.59;;;13.74;52.97
36386;BME280;24125;47.482;8.770;2023-02-03T13:46:39;97547.47;;;13.73;53.36
36386;BME280;24125;47.482;8.770;2023-02-03T13:49:21;97544.50;;;13.74;52.71
36386;BME280;24125;47.482;8.770;2023-02-03T13:51:55;97538.94;;;13.71;53.59
36386;BME280;24125;47.482;8.770;2023-02-03T13:54:32;97542.41;;;13.71;53.23
36386;BME280;24125;47.482;8.770;2023-02-03T13:57:19;97538.31;;;13.74;52.55
36386;BME280;24125;47.482;8.770;2023-02-03T13:59:53;97539.44;;;13.73;53.81